createdAt,value
2022-10-18T00:00:10.520Z,99711.53
2022-10-18T00:02:37.123Z,99720.75
2022-10-18T00:05:04.108Z,99730.56
2022-10-18T00:07:31.036Z,99726.19
2022-10-18T00:09:57.844Z,99723.94
2022-10-18T00:12:24.420Z,99728.88
2022-10-18T00:14:51.164Z,99733.53
2022-10-18T00:17:18.123Z,99732.19
2022-10-18T00:19:46.400Z,99727.81
2022-10-18T00:22:12.960Z,99724.56
2022-10-18T00:24:40.078Z,99714.25
2022-10-18T00:27:06.662Z,99705.44
2022-10-18T00:29:33.280Z,99711.16
2022-10-18T00:31:59.857Z,99707.56
2022-10-18T00:34:26.629Z,99709.72
2022-10-18T00:36:53.275Z,99717.53
2022-10-18T00:39:22.032Z,99712.13
2022-10-18T00:41:50.159Z,99706.09
2022-10-18T00:44:16.664Z,99707.78
2022-10-18T00:46:47.855Z,99704.56
2022-10-18T00:49:23.648Z,99711.81
2022-10-18T00:52:15.367Z,99711.81
2022-10-18T00:54:44.625Z,99707.78
2022-10-18T00:57:12.964Z,99708.41
2022-10-18T00:59:40.319Z,99702.81
2022-10-18T01:02:07.883Z,99696.16
2022-10-18T01:04:35.372Z,99691.19
2022-10-18T01:07:41.615Z,99690.91
2022-10-18T01:10:25.591Z,99695.72
2022-10-18T01:13:24.802Z,99687.44
2022-10-18T01:16:03.407Z,99681.19
2022-10-18T01:18:56.715Z,99689.00
2022-10-18T01:21:44.080Z,99684.56
2022-10-18T01:24:39.928Z,99676.88
2022-10-18T01:27:21.199Z,99681.44
2022-10-18T01:30:26.508Z,99679.91
2022-10-18T01:33:00.843Z,99677.16
2022-10-18T01:35:35.948Z,99680.78
2022-10-18T01:38:07.352Z,99682.16
2022-10-18T01:40:35.992Z,99688.63
2022-10-18T01:43:04.488Z,99693.81
2022-10-18T01:45:32.880Z,99702.69
2022-10-18T01:48:01.917Z,99687.16
2022-10-18T01:50:34.407Z,99677.34
2022-10-18T01:53:01.572Z,99671.88
2022-10-18T01:55:38.813Z,99681.22
2022-10-18T01:58:36.812Z,99683.50
2022-10-18T02:01:43.832Z,99687.25
2022-10-18T02:04:40.736Z,99693.28
2022-10-18T02:07:37.624Z,99680.47
2022-10-18T02:10:49.637Z,99665.28
2022-10-18T02:13:20.556Z,99668.53
2022-10-18T02:15:51.024Z,99656.03
2022-10-18T02:18:25.742Z,99655.25
2022-10-18T02:20:53.443Z,99662.09
2022-10-18T02:23:23.486Z,99667.66
2022-10-18T02:25:50.808Z,99670.53
2022-10-18T02:28:17.562Z,99666.56
2022-10-18T02:31:17.558Z,99647.91
2022-10-18T02:34:09.414Z,99633.72
2022-10-18T02:36:46.042Z,99635.50
2022-10-18T02:39:17.894Z,99642.75
2022-10-18T02:41:44.588Z,99635.66
2022-10-18T02:44:11.278Z,99626.50
2022-10-18T02:46:39.421Z,99619.53
2022-10-18T02:49:06.447Z,99637.69
2022-10-18T02:51:33.270Z,99643.25
2022-10-18T02:53:59.896Z,99656.34
2022-10-18T02:56:26.491Z,99671.06
2022-10-18T02:58:53.111Z,99672.88
2022-10-18T03:01:19.790Z,99674.66
2022-10-18T03:03:46.548Z,99670.53
2022-10-18T03:06:13.130Z,99673.81
2022-10-18T03:08:39.742Z,99677.84
2022-10-18T03:11:06.508Z,99674.34
2022-10-18T03:13:34.022Z,99685.88
2022-10-18T03:16:01.327Z,99690.44
2022-10-18T03:18:27.959Z,99713.34
2022-10-18T03:20:54.572Z,99699.97
2022-10-18T03:23:21.493Z,99703.72
2022-10-18T03:25:48.123Z,99719.81
2022-10-18T03:28:14.690Z,99717.03
2022-10-18T03:30:41.262Z,99723.38
2022-10-18T03:33:07.871Z,99724.94
2022-10-18T03:35:34.445Z,99712.25
2022-10-18T03:38:01.006Z,99709.53
2022-10-18T03:40:27.636Z,99698.97
2022-10-18T03:42:54.260Z,99696.25
2022-10-18T03:45:20.878Z,99688.44
2022-10-18T03:47:47.427Z,99678.03
2022-10-18T03:50:14.132Z,99685.28
2022-10-18T03:52:40.684Z,99674.88
2022-10-18T03:55:07.831Z,99680.59
2022-10-18T03:57:34.411Z,99665.09
2022-10-18T04:00:01.079Z,99675.66
2022-10-18T04:02:27.849Z,99671.28
2022-10-18T04:04:54.391Z,99676.25
2022-10-18T04:07:20.942Z,99659.94
2022-10-18T04:09:47.503Z,99668.28
2022-10-18T04:12:14.404Z,99671.63
2022-10-18T04:14:41.015Z,99672.41
2022-10-18T04:17:08.198Z,99674.53
2022-10-18T04:19:34.784Z,99666.81
2022-10-18T04:22:01.410Z,99666.00
2022-10-18T04:24:28.043Z,99673.53
2022-10-18T04:26:54.607Z,99666.31
2022-10-18T04:29:21.254Z,99667.81
2022-10-18T04:31:47.837Z,99667.81
2022-10-18T04:34:14.511Z,99669.31
2022-10-18T04:36:41.095Z,99666.56
2022-10-18T04:39:07.755Z,99661.13
2022-10-18T04:41:34.390Z,99658.41
2022-10-18T04:44:00.971Z,99653.78
2022-10-18T04:46:27.555Z,99659.66
2022-10-18T04:48:54.152Z,99659.47
2022-10-18T04:51:20.762Z,99671.38
2022-10-18T04:53:47.315Z,99679.84
2022-10-18T04:56:13.933Z,99686.31
2022-10-18T04:58:40.519Z,99687.06
2022-10-18T05:01:07.893Z,99681.50
2022-10-18T05:03:35.242Z,99681.69
2022-10-18T05:06:03.136Z,99686.38
2022-10-18T05:08:32.251Z,99683.75
2022-10-18T05:10:59.447Z,99685.72
2022-10-18T05:13:26.517Z,99691.00
2022-10-18T05:15:53.086Z,99686.63
2022-10-18T05:18:20.000Z,99680.91
2022-10-18T05:20:47.216Z,99673.53
2022-10-18T05:23:13.790Z,99674.59
2022-10-18T05:25:42.245Z,99684.13
2022-10-18T05:28:15.593Z,99674.03
2022-10-18T05:30:53.974Z,99671.44
2022-10-18T05:33:20.622Z,99685.47
2022-10-18T05:35:47.262Z,99677.47
2022-10-18T05:38:13.822Z,99674.03
2022-10-18T05:40:40.434Z,99677.94
2022-10-18T05:43:07.005Z,99666.31
2022-10-18T05:45:33.653Z,99668.53
2022-10-18T05:48:00.422Z,99673.41
2022-10-18T05:50:27.446Z,99670.69
2022-10-18T05:53:02.750Z,99664.34
2022-10-18T05:55:38.894Z,99665.09
2022-10-18T05:58:05.513Z,99665.69
2022-10-18T06:00:32.157Z,99664.34
2022-10-18T06:03:00.345Z,99668.09
2022-10-18T06:05:27.645Z,99660.84
2022-10-18T06:07:54.277Z,99659.38
2022-10-18T06:10:20.872Z,99666.56
2022-10-18T06:12:47.454Z,99668.53
2022-10-18T06:15:14.222Z,99672.16
2022-10-18T06:17:40.770Z,99665.09
2022-10-18T06:20:08.378Z,99673.81
2022-10-18T06:22:35.038Z,99680.16
2022-10-18T06:25:01.623Z,99681.50
2022-10-18T06:27:28.378Z,99682.28
2022-10-18T06:29:54.942Z,99684.03
2022-10-18T06:32:24.438Z,99674.09
2022-10-18T06:34:50.994Z,99673.06
2022-10-18T06:37:17.565Z,99677.31
2022-10-18T06:39:44.158Z,99681.72
2022-10-18T06:42:10.718Z,99687.63
2022-10-18T06:44:37.318Z,99696.81
2022-10-18T06:47:03.999Z,99702.72
2022-10-18T06:49:30.559Z,99700.72
2022-10-18T06:51:57.159Z,99710.97
2022-10-18T06:54:23.718Z,99706.59
2022-10-18T06:56:50.262Z,99709.16
2022-10-18T06:59:18.044Z,99709.59
2022-10-18T07:01:44.777Z,99720.00
2022-10-18T07:04:11.474Z,99720.09
2022-10-18T07:06:38.046Z,99724.91
2022-10-18T07:09:04.844Z,99724.91
2022-10-18T07:11:31.558Z,99729.28
2022-10-18T07:14:03.133Z,99734.38
2022-10-18T07:16:31.551Z,99741.31
2022-10-18T07:18:58.289Z,99738.59
2022-10-18T07:21:26.284Z,99744.63
2022-10-18T07:23:52.955Z,99740.41
2022-10-18T07:26:25.868Z,99744.16
2022-10-18T07:28:57.739Z,99754.00
2022-10-18T07:31:25.079Z,99751.56
2022-10-18T07:33:52.117Z,99749.63
2022-10-18T07:36:21.061Z,99744.91
2022-10-18T07:38:48.970Z,99757.13
2022-10-18T07:41:16.547Z,99759.09
2022-10-18T07:43:46.652Z,99756.84
2022-10-18T07:46:15.047Z,99751.25
2022-10-18T07:48:42.067Z,99754.09
2022-10-18T07:51:09.976Z,99747.38
2022-10-18T07:53:36.991Z,99747.16
2022-10-18T07:56:15.690Z,99756.16
2022-10-18T07:58:53.693Z,99749.50
2022-10-18T08:01:24.976Z,99754.00
2022-10-18T08:03:53.080Z,99755.78
2022-10-18T08:06:21.184Z,99754.44
2022-10-18T08:08:48.072Z,99761.94
2022-10-18T08:11:20.882Z,99774.34
2022-10-18T08:13:48.343Z,99775.16
2022-10-18T08:16:25.959Z,99781.94
2022-10-18T08:18:53.471Z,99779.25
2022-10-18T08:21:21.561Z,99787.78
2022-10-18T08:23:48.684Z,99784.97
2022-10-18T08:26:18.749Z,99785.41
2022-10-18T08:28:53.779Z,99795.13
2022-10-18T08:31:20.861Z,99794.69
2022-10-18T08:33:47.975Z,99794.00
2022-10-18T08:36:16.744Z,99797.28
2022-10-18T08:38:43.775Z,99796.28
2022-10-18T08:41:46.287Z,99807.00
2022-10-18T08:44:27.475Z,99808.28
2022-10-18T08:47:06.016Z,99803.25
2022-10-18T08:49:42.994Z,99806.91
2022-10-18T08:52:35.903Z,99815.47
2022-10-18T08:55:45.308Z,99805.03
2022-10-18T08:58:21.842Z,99809.28
2022-10-18T09:01:24.666Z,99811.88
2022-10-18T09:04:09.267Z,99812.03
2022-10-18T09:07:18.738Z,99809.50
2022-10-18T09:10:33.365Z,99818.13
2022-10-18T09:14:02.908Z,99812.25
2022-10-18T09:17:01.678Z,99811.59
2022-10-18T09:19:37.933Z,99813.00
2022-10-18T09:22:18.350Z,99811.50
2022-10-18T09:25:07.482Z,99819.00
2022-10-18T09:28:11.123Z,99824.72
2022-10-18T09:31:21.339Z,99832.72
2022-10-18T09:34:01.776Z,99831.75
2022-10-18T09:36:37.098Z,99832.72
2022-10-18T09:39:21.527Z,99826.09
2022-10-18T09:41:54.961Z,99828.97
2022-10-18T09:44:34.533Z,99828.22
2022-10-18T09:47:14.589Z,99834.81
2022-10-18T09:49:49.176Z,99832.59
2022-10-18T09:52:26.659Z,99831.94
2022-10-18T09:55:00.493Z,99834.84
2022-10-18T09:57:40.478Z,99832.72
2022-10-18T10:00:21.502Z,99832.88
2022-10-18T10:02:48.118Z,99831.88
2022-10-18T10:05:15.544Z,99832.88
2022-10-18T10:07:48.405Z,99841.09
2022-10-18T10:10:27.083Z,99846.50
2022-10-18T10:13:06.823Z,99849.00
2022-10-18T10:15:38.233Z,99842.47
2022-10-18T10:18:31.833Z,99846.28
2022-10-18T10:21:02.455Z,99853.25
2022-10-18T10:23:45.939Z,99859.06
2022-10-18T10:26:30.598Z,99853.06
2022-10-18T10:28:57.426Z,99866.50
2022-10-18T10:31:31.691Z,99857.84
2022-10-18T10:34:04.969Z,99864.63
2022-10-18T10:36:34.025Z,99869.81
2022-10-18T10:39:18.609Z,99861.47
2022-10-18T10:42:00.291Z,99868.84
2022-10-18T10:44:30.900Z,99871.38
2022-10-18T10:46:58.490Z,99877.97
2022-10-18T10:49:43.658Z,99874.84
2022-10-18T10:52:27.404Z,99880.78
2022-10-18T10:55:05.819Z,99875.09
2022-10-18T10:57:47.527Z,99875.50
2022-10-18T11:00:44.272Z,99880.78
2022-10-18T11:03:29.573Z,99883.59
2022-10-18T11:06:00.239Z,99890.84
2022-10-18T11:08:33.265Z,99877.91
2022-10-18T11:11:27.728Z,99873.13
2022-10-18T11:14:26.680Z,99871.50
2022-10-18T11:17:17.303Z,99862.91
2022-10-18T11:20:11.286Z,99866.56
2022-10-18T11:22:56.448Z,99863.38
2022-10-18T11:25:29.224Z,99864.97
2022-10-18T11:28:28.783Z,99862.75
2022-10-18T11:31:24.821Z,99871.13
2022-10-18T11:34:24.473Z,99866.19
2022-10-18T11:37:26.728Z,99867.06
2022-10-18T11:39:53.561Z,99864.56
2022-10-18T11:42:37.816Z,99868.25
2022-10-18T11:45:40.180Z,99864.56
2022-10-18T11:48:31.549Z,99870.38
2022-10-18T11:51:34.287Z,99861.97
2022-10-18T11:54:36.925Z,99867.06
2022-10-18T11:57:30.989Z,99860.47
2022-10-18T12:00:22.795Z,99858.13
2022-10-18T12:03:28.096Z,99863.19
2022-10-18T12:06:01.257Z,99860.00
2022-10-18T12:08:57.464Z,99858.34
2022-10-18T12:11:31.881Z,99850.59
2022-10-18T12:14:04.744Z,99855.19
2022-10-18T12:16:51.161Z,99854.59
2022-10-18T12:19:27.081Z,99847.81
2022-10-18T12:22:14.741Z,99844.75
2022-10-18T12:24:42.494Z,99830.38
2022-10-18T12:27:15.099Z,99826.94
2022-10-18T12:29:57.965Z,99830.47
2022-10-18T12:32:32.859Z,99827.47
2022-10-18T12:35:11.757Z,99830.50
2022-10-18T12:38:15.966Z,99829.81
2022-10-18T12:40:46.422Z,99829.09
2022-10-18T12:43:26.069Z,99826.41
2022-10-18T12:45:57.151Z,99829.63
2022-10-18T12:48:32.866Z,99834.97
2022-10-18T12:51:22.125Z,99831.34
2022-10-18T12:54:00.957Z,99823.31
2022-10-18T12:56:27.490Z,99833.53
2022-10-18T12:59:15.946Z,99834.41
2022-10-18T13:01:50.441Z,99836.53
2022-10-18T13:04:29.218Z,99833.88
2022-10-18T13:07:04.882Z,99835.91
2022-10-18T13:09:37.819Z,99835.16
2022-10-18T13:12:10.575Z,99834.41
2022-10-18T13:15:36.024Z,99827.50
2022-10-18T13:18:30.446Z,99833.56
2022-10-18T13:21:32.516Z,99830.31
2022-10-18T13:24:34.163Z,99828.81
2022-10-18T13:27:36.277Z,99833.53
2022-10-18T13:30:32.892Z,99827.09
2022-10-18T13:33:28.316Z,99824.53
2022-10-18T13:36:22.552Z,99821.47
2022-10-18T13:39:05.772Z,99826.19
2022-10-18T13:41:47.321Z,99825.56
2022-10-18T13:44:37.764Z,99824.97
2022-10-18T13:47:04.444Z,99819.28
2022-10-18T13:49:39.800Z,99827.63
2022-10-18T13:52:15.400Z,99819.34
2022-10-18T13:55:37.660Z,99825.84
2022-10-18T13:59:05.764Z,99819.56
2022-10-18T14:02:51.288Z,99831.31
2022-10-18T14:05:42.517Z,99823.44
2022-10-18T14:08:22.573Z,99822.38
2022-10-18T14:11:05.251Z,99833.69
2022-10-18T14:13:46.027Z,99833.69
2022-10-18T14:16:40.050Z,99836.47
2022-10-18T14:19:25.546Z,99830.94
2022-10-18T14:22:06.898Z,99830.19
2022-10-18T14:24:34.262Z,99834.16
2022-10-18T14:27:25.154Z,99836.66
2022-10-18T14:30:14.504Z,99840.28
2022-10-18T14:32:50.467Z,99835.22
2022-10-18T14:35:32.579Z,99839.19
2022-10-18T14:38:00.821Z,99840.44
2022-10-18T14:40:39.458Z,99838.16
2022-10-18T14:43:12.082Z,99842.84
2022-10-18T14:45:40.300Z,99845.09
2022-10-18T14:48:20.869Z,99846.25
2022-10-18T14:50:59.100Z,99843.34
2022-10-18T14:53:32.473Z,99842.72
2022-10-18T14:56:00.817Z,99844.47
2022-10-18T14:58:28.051Z,99856.69
2022-10-18T15:00:54.734Z,99851.41
2022-10-18T15:03:22.326Z,99849.19
2022-10-18T15:06:03.702Z,99854.47
2022-10-18T15:08:40.330Z,99851.59
2022-10-18T15:11:10.622Z,99853.72
2022-10-18T15:13:54.107Z,99854.22
2022-10-18T15:16:25.490Z,99860.75
2022-10-18T15:19:13.903Z,99868.50
2022-10-18T15:25:15.922Z,99861.25
2022-10-18T15:27:49.566Z,99853.00
2022-10-18T15:30:29.230Z,99850.97
2022-10-18T15:33:00.572Z,99853.34
2022-10-18T15:35:38.850Z,99860.97
2022-10-18T15:38:17.422Z,99856.09
2022-10-18T15:40:44.350Z,99861.25
2022-10-18T15:43:23.243Z,99858.13
2022-10-18T15:46:00.029Z,99854.22
2022-10-18T15:48:41.426Z,99854.22
2022-10-18T15:51:54.823Z,99854.09
2022-10-18T15:54:30.564Z,99867.00
2022-10-18T15:56:57.643Z,99858.88
2022-10-18T15:59:28.847Z,99851.13
2022-10-18T16:01:55.919Z,99864.84
2022-10-18T16:04:27.460Z,99864.50
2022-10-18T16:06:55.853Z,99865.53
2022-10-18T16:09:25.414Z,99868.63
2022-10-18T16:11:56.693Z,99874.75
2022-10-18T16:14:25.584Z,99880.22
2022-10-18T16:16:56.382Z,99874.84
2022-10-18T16:19:23.050Z,99872.44
2022-10-18T16:21:52.355Z,99868.91
2022-10-18T16:24:19.705Z,99872.63
2022-10-18T16:26:47.104Z,99869.16
2022-10-18T16:29:18.530Z,99871.75
2022-10-18T16:31:46.588Z,99883.59
2022-10-18T16:34:14.703Z,99876.34
2022-10-18T16:36:41.573Z,99879.41
2022-10-18T16:39:15.233Z,99888.00
2022-10-18T16:41:41.920Z,99892.78
2022-10-18T16:44:10.083Z,99887.88
2022-10-18T16:46:36.944Z,99886.22
2022-10-18T16:49:05.113Z,99882.19
2022-10-18T16:51:32.305Z,99892.66
2022-10-18T16:53:58.893Z,99899.00
2022-10-18T16:56:31.462Z,99890.88
2022-10-18T16:58:59.449Z,99895.72
2022-10-18T17:01:26.448Z,99893.41
2022-10-18T17:03:54.150Z,99896.59
2022-10-18T17:06:32.906Z,99905.97
2022-10-18T17:08:59.710Z,99913.38
2022-10-18T17:11:28.220Z,99914.06
2022-10-18T17:13:55.570Z,99920.59
2022-10-18T17:18:58.847Z,99920.28
2022-10-18T17:21:27.080Z,99911.22
2022-10-18T17:23:53.931Z,99928.78
2022-10-18T17:26:28.811Z,99921.59
2022-10-18T17:29:07.881Z,99916.94
2022-10-18T17:31:35.556Z,99924.91
2022-10-18T17:34:02.360Z,99924.75
2022-10-18T17:36:31.302Z,99924.75
2022-10-18T17:38:58.104Z,99921.50
2022-10-18T17:41:25.124Z,99929.72
2022-10-18T17:43:51.749Z,99935.47
2022-10-18T17:46:19.374Z,99931.88
2022-10-18T17:48:46.635Z,99933.81
2022-10-18T17:51:16.634Z,99936.56
2022-10-18T17:53:43.527Z,99934.41
2022-10-18T17:56:11.935Z,99942.53
2022-10-18T17:58:43.507Z,99937.16
2022-10-18T18:01:19.988Z,99942.38
2022-10-18T18:03:49.906Z,99938.31
2022-10-18T18:06:19.089Z,99942.66
2022-10-18T18:08:47.400Z,99938.00
2022-10-18T18:11:14.634Z,99944.69
2022-10-18T18:13:41.605Z,99944.34
2022-10-18T18:16:21.247Z,99944.34
2022-10-18T18:18:51.693Z,99942.41
2022-10-18T18:21:20.330Z,99937.22
2022-10-18T18:23:48.453Z,99926.88
2022-10-18T18:26:15.853Z,99934.28
2022-10-18T18:28:42.720Z,99940.75
2022-10-18T18:31:25.450Z,99936.97
2022-10-18T18:33:55.694Z,99928.50
2022-10-18T18:36:25.287Z,99928.97
2022-10-18T18:38:55.523Z,99922.47
2022-10-18T18:41:26.436Z,99919.16
2022-10-18T18:43:58.181Z,99923.81
2022-10-18T18:46:27.430Z,99926.03
2022-10-18T18:48:54.586Z,99916.97
2022-10-18T18:51:22.390Z,99928.97
2022-10-18T18:53:49.307Z,99926.41
2022-10-18T18:58:52.867Z,99931.97
2022-10-18T19:01:26.706Z,99933.13
2022-10-18T19:03:55.708Z,99932.78
2022-10-18T19:06:44.723Z,99932.94
2022-10-18T19:09:20.478Z,99946.91
2022-10-18T19:11:49.978Z,99941.72
2022-10-18T19:14:16.663Z,99938.81
2022-10-18T19:16:48.074Z,99940.44
2022-10-18T19:19:21.430Z,99935.06
2022-10-18T19:22:00.607Z,99935.78
2022-10-18T19:24:30.101Z,99937.50
2022-10-18T19:27:06.472Z,99935.91
2022-10-18T19:29:36.859Z,99939.84
2022-10-18T19:32:11.786Z,99943.06
2022-10-18T19:34:38.684Z,99939.78
2022-10-18T19:37:05.450Z,99944.19
2022-10-18T19:39:34.899Z,99947.06
2022-10-18T19:42:06.072Z,99937.88
2022-10-18T19:44:35.762Z,99948.88
2022-10-18T19:47:06.946Z,99942.66
2022-10-18T19:49:33.562Z,99947.88
2022-10-18T19:52:00.404Z,99950.22
2022-10-18T19:54:27.121Z,99947.63
2022-10-18T19:56:53.911Z,99945.75
2022-10-18T19:59:22.367Z,99937.78
2022-10-18T20:01:49.009Z,99943.00
2022-10-18T20:04:16.333Z,99934.44
2022-10-18T20:06:43.913Z,99939.47
2022-10-18T20:09:16.076Z,99934.25
2022-10-18T20:11:46.086Z,99941.72
2022-10-18T20:14:21.104Z,99946.69
2022-10-18T20:16:47.675Z,99933.22
2022-10-18T20:19:14.298Z,99940.84
2022-10-18T20:21:40.942Z,99941.94
2022-10-18T20:24:11.509Z,99950.72
2022-10-18T20:26:39.319Z,99959.22
2022-10-18T20:29:07.404Z,99963.97
2022-10-18T20:31:37.051Z,99958.69
2022-10-18T20:34:13.621Z,99956.84
2022-10-18T20:36:40.636Z,99962.75
2022-10-18T20:39:07.837Z,99956.09
2022-10-18T20:41:38.257Z,99959.72
2022-10-18T20:44:08.252Z,99959.63
2022-10-18T20:46:37.244Z,99963.06
2022-10-18T20:49:06.173Z,99963.47
2022-10-18T20:51:33.570Z,99967.34
2022-10-18T20:54:02.353Z,99979.22
2022-10-18T20:56:31.309Z,99974.03
2022-10-18T20:58:58.290Z,99968.00
2022-10-18T21:01:34.094Z,99968.56
2022-10-18T21:04:05.236Z,99972.34
2022-10-18T21:06:43.676Z,99977.09
2022-10-18T21:09:16.793Z,99976.06
2022-10-18T21:11:46.157Z,99979.94
2022-10-18T21:14:16.105Z,99968.94
2022-10-18T21:16:43.662Z,99976.03
2022-10-18T21:19:17.333Z,99976.06
2022-10-18T21:21:46.473Z,99979.13
2022-10-18T21:24:14.094Z,99982.94
2022-10-18T21:26:41.197Z,99982.22
2022-10-18T21:29:08.528Z,99975.25
2022-10-18T21:31:39.071Z,99977.50
2022-10-18T21:34:15.633Z,99964.50
2022-10-18T21:36:44.685Z,99964.31
2022-10-18T21:39:16.318Z,99962.41
2022-10-18T21:41:43.845Z,99963.16
2022-10-18T21:44:11.485Z,99959.13
2022-10-18T21:46:39.551Z,99959.94
2022-10-18T21:49:07.317Z,99954.25
2022-10-18T21:51:34.565Z,99954.66
2022-10-18T21:54:01.280Z,99958.00
2022-10-18T21:56:34.717Z,99951.56
2022-10-18T21:59:02.494Z,99957.19
2022-10-18T22:01:38.096Z,99952.00
2022-10-18T22:04:15.833Z,99949.59
2022-10-18T22:06:42.405Z,99943.78
2022-10-18T22:09:09.081Z,99944.75
2022-10-18T22:11:44.124Z,99946.50
2022-10-18T22:14:11.020Z,99945.44
2022-10-18T22:16:40.562Z,99939.31
2022-10-18T22:19:07.866Z,99943.13
2022-10-18T22:21:34.890Z,99942.66
2022-10-18T22:24:05.982Z,99936.72
2022-10-18T22:26:39.258Z,99947.53
2022-10-18T22:29:14.490Z,99943.66
2022-10-18T22:31:47.580Z,99941.31
2022-10-18T22:34:24.266Z,99947.19
2022-10-18T22:36:51.004Z,99947.81
2022-10-18T22:39:17.878Z,99941.06
2022-10-18T22:41:44.677Z,99935.88
2022-10-18T22:44:13.561Z,99936.63
2022-10-18T22:46:41.082Z,99936.13
2022-10-18T22:49:08.164Z,99941.84
2022-10-18T22:54:02.646Z,99945.44
2022-10-18T22:56:29.345Z,99940.56
2022-10-18T22:58:55.909Z,99945.75
2022-10-18T23:01:24.341Z,99940.81
2022-10-18T23:03:56.045Z,99941.50
2022-10-18T23:06:29.546Z,99945.69
2022-10-18T23:08:58.906Z,99945.19
2022-10-18T23:11:27.665Z,99943.91
2022-10-18T23:13:54.810Z,99950.44
2022-10-18T23:16:21.601Z,99949.72
2022-10-18T23:18:54.870Z,99946.34
2022-10-18T23:21:24.140Z,99947.28
2022-10-18T23:23:52.729Z,99941.16
2022-10-18T23:26:24.921Z,99950.38
2022-10-18T23:28:53.847Z,99942.75
2022-10-18T23:31:27.636Z,99940.22
2022-10-18T23:33:57.584Z,99948.34
2022-10-18T23:36:25.228Z,99942.63
2022-10-18T23:38:53.958Z,99944.28
2022-10-18T23:41:20.819Z,99946.16
2022-10-18T23:43:48.158Z,99935.22
2022-10-18T23:46:17.089Z,99944.63
2022-10-18T23:48:44.662Z,99943.78
2022-10-18T23:51:11.742Z,99944.69
2022-10-18T23:53:39.067Z,99949.59
2022-10-18T23:56:09.917Z,99943.63
2022-10-18T23:58:37.917Z,99932.59
